createdAt,value
2023-03-27T00:02:04.854Z,100.00
2023-03-27T00:04:31.478Z,100.00
2023-03-27T00:06:59.438Z,100.00
2023-03-27T00:09:27.261Z,100.00
2023-03-27T00:11:56.230Z,100.00
2023-03-27T00:14:23.864Z,100.00
2023-03-27T00:16:51.002Z,100.00
2023-03-27T00:19:18.790Z,100.00
2023-03-27T00:21:45.307Z,100.00
2023-03-27T00:24:11.819Z,100.00
2023-03-27T00:26:40.577Z,100.00
2023-03-27T00:29:07.751Z,100.00
2023-03-27T00:31:34.576Z,100.00
2023-03-27T00:34:01.802Z,100.00
2023-03-27T00:36:28.339Z,100.00
2023-03-27T00:38:54.841Z,100.00
2023-03-27T00:41:21.411Z,100.00
2023-03-27T00:43:48.604Z,100.00
2023-03-27T00:46:14.951Z,100.00
2023-03-27T00:48:41.876Z,100.00
2023-03-27T00:51:08.353Z,100.00
2023-03-27T00:53:34.817Z,100.00
2023-03-27T00:56:03.353Z,100.00
2023-03-27T00:58:32.278Z,100.00
2023-03-27T01:00:59.501Z,100.00
2023-03-27T01:03:29.733Z,100.00
2023-03-27T01:05:56.290Z,100.00
2023-03-27T01:08:22.844Z,100.00
2023-03-27T01:10:51.940Z,100.00
2023-03-27T01:13:47.077Z,100.00
2023-03-27T01:16:22.738Z,100.00
2023-03-27T01:19:00.872Z,100.00
2023-03-27T01:22:10.444Z,100.00
2023-03-27T01:24:47.744Z,100.00
2023-03-27T01:27:58.522Z,100.00
2023-03-27T01:30:36.673Z,100.00
2023-03-27T01:33:36.682Z,100.00
2023-03-27T01:36:30.516Z,100.00
2023-03-27T01:39:18.752Z,100.00
2023-03-27T01:41:52.994Z,100.00
2023-03-27T01:44:44.883Z,100.00
2023-03-27T01:47:42.512Z,100.00
2023-03-27T01:50:17.321Z,100.00
2023-03-27T01:52:47.427Z,100.00
2023-03-27T01:55:15.792Z,100.00
2023-03-27T01:57:49.315Z,100.00
2023-03-27T02:00:21.874Z,100.00
2023-03-27T02:02:52.443Z,100.00
2023-03-27T02:05:29.733Z,100.00
2023-03-27T02:08:12.087Z,100.00
2023-03-27T02:10:41.606Z,100.00
2023-03-27T02:13:12.266Z,100.00
2023-03-27T02:15:40.645Z,100.00
2023-03-27T02:18:10.078Z,100.00
2023-03-27T02:20:37.628Z,100.00
2023-03-27T02:23:04.614Z,100.00
2023-03-27T02:25:39.646Z,100.00
2023-03-27T02:28:30.802Z,100.00
2023-03-27T02:31:06.037Z,100.00
2023-03-27T02:34:14.170Z,100.00
2023-03-27T02:37:02.144Z,100.00
2023-03-27T02:39:48.865Z,100.00
2023-03-27T02:42:19.718Z,100.00
2023-03-27T02:44:55.047Z,100.00
2023-03-27T02:48:01.988Z,100.00
2023-03-27T02:50:31.780Z,100.00
2023-03-27T02:53:00.142Z,100.00
2023-03-27T02:55:33.250Z,100.00
2023-03-27T02:58:02.254Z,100.00
2023-03-27T03:00:30.150Z,100.00
2023-03-27T03:03:27.854Z,100.00
2023-03-27T03:05:55.195Z,100.00
2023-03-27T03:08:21.768Z,100.00
2023-03-27T03:10:48.316Z,100.00
2023-03-27T03:13:15.470Z,100.00
2023-03-27T03:15:41.933Z,100.00
2023-03-27T03:18:09.318Z,100.00
2023-03-27T03:20:36.367Z,100.00
2023-03-27T03:23:02.924Z,100.00
2023-03-27T03:25:31.231Z,100.00
2023-03-27T03:28:00.334Z,100.00
2023-03-27T03:30:30.376Z,100.00
2023-03-27T03:32:56.897Z,100.00
2023-03-27T03:35:24.647Z,100.00
2023-03-27T03:37:51.644Z,100.00
2023-03-27T03:40:19.060Z,100.00
2023-03-27T03:42:50.363Z,100.00
2023-03-27T03:45:17.197Z,100.00
2023-03-27T03:47:44.035Z,100.00
2023-03-27T03:50:10.874Z,100.00
2023-03-27T03:52:37.374Z,100.00
2023-03-27T03:55:04.608Z,100.00
2023-03-27T03:57:31.152Z,100.00
2023-03-27T03:59:58.395Z,100.00
2023-03-27T04:02:29.001Z,100.00
2023-03-27T04:04:56.735Z,100.00
2023-03-27T04:07:23.505Z,100.00
2023-03-27T04:09:50.669Z,100.00
2023-03-27T04:12:17.662Z,100.00
2023-03-27T04:14:44.575Z,100.00
2023-03-27T04:17:11.434Z,100.00
2023-03-27T04:19:37.928Z,100.00
2023-03-27T04:22:05.625Z,100.00
2023-03-27T04:24:32.083Z,100.00
2023-03-27T04:27:01.092Z,100.00
2023-03-27T04:29:30.497Z,100.00
2023-03-27T04:31:57.468Z,100.00
2023-03-27T04:34:24.319Z,100.00
2023-03-27T04:36:51.145Z,100.00
2023-03-27T04:39:18.310Z,100.00
2023-03-27T04:41:50.749Z,100.00
2023-03-27T04:44:17.581Z,100.00
2023-03-27T04:46:44.913Z,100.00
2023-03-27T04:49:11.643Z,100.00
2023-03-27T04:51:38.513Z,100.00
2023-03-27T04:54:05.100Z,100.00
2023-03-27T04:56:33.758Z,100.00
2023-03-27T04:59:01.352Z,100.00
2023-03-27T05:01:28.666Z,100.00
2023-03-27T05:03:56.290Z,100.00
2023-03-27T05:06:23.205Z,100.00
2023-03-27T05:08:50.175Z,100.00
2023-03-27T05:11:16.673Z,100.00
2023-03-27T05:13:43.433Z,100.00
2023-03-27T05:16:10.164Z,100.00
2023-03-27T05:18:38.388Z,100.00
2023-03-27T05:21:08.348Z,100.00
2023-03-27T05:23:34.822Z,100.00
2023-03-27T05:26:01.288Z,100.00
2023-03-27T05:28:28.400Z,100.00
2023-03-27T05:30:55.206Z,100.00
2023-03-27T05:33:21.912Z,100.00
2023-03-27T05:35:52.544Z,100.00
2023-03-27T05:38:19.660Z,100.00
2023-03-27T05:40:46.125Z,100.00
2023-03-27T05:43:12.627Z,100.00
2023-03-27T05:45:39.079Z,100.00
2023-03-27T05:48:05.755Z,100.00
2023-03-27T05:50:34.506Z,100.00
2023-03-27T05:53:02.539Z,100.00
2023-03-27T05:55:29.040Z,100.00
2023-03-27T05:57:55.575Z,100.00
2023-03-27T06:00:25.751Z,100.00
2023-03-27T06:02:56.418Z,100.00
2023-03-27T06:05:23.072Z,100.00
2023-03-27T06:07:50.690Z,100.00
2023-03-27T06:10:26.787Z,100.00
2023-03-27T06:13:06.432Z,100.00
2023-03-27T06:15:33.304Z,100.00
2023-03-27T06:17:59.846Z,100.00
2023-03-27T06:20:26.632Z,100.00
2023-03-27T06:22:55.629Z,100.00
2023-03-27T06:25:22.821Z,100.00
2023-03-27T06:27:49.757Z,100.00
2023-03-27T06:30:18.029Z,100.00
2023-03-27T06:32:52.180Z,100.00
2023-03-27T06:35:18.981Z,100.00
2023-03-27T06:37:48.824Z,100.00
2023-03-27T06:40:27.579Z,100.00
2023-03-27T06:42:55.974Z,100.00
2023-03-27T06:45:27.409Z,100.00
2023-03-27T06:48:13.626Z,100.00
2023-03-27T06:50:47.032Z,100.00
2023-03-27T06:53:26.702Z,100.00
2023-03-27T06:55:54.797Z,100.00
2023-03-27T06:58:21.785Z,100.00
2023-03-27T07:00:49.616Z,100.00
2023-03-27T07:03:16.533Z,100.00
2023-03-27T07:05:43.111Z,100.00
2023-03-27T07:10:44.631Z,100.00
2023-03-27T07:13:12.145Z,100.00
2023-03-27T07:15:38.695Z,100.00
2023-03-27T07:18:06.477Z,100.00
2023-03-27T07:20:33.611Z,100.00
2023-03-27T07:23:00.578Z,100.00
2023-03-27T07:25:28.323Z,100.00
2023-03-27T07:27:59.464Z,100.00
2023-03-27T07:30:25.979Z,100.00
2023-03-27T07:32:52.587Z,100.00
2023-03-27T07:35:19.733Z,100.00
2023-03-27T07:37:46.665Z,100.00
2023-03-27T07:40:29.381Z,100.00
2023-03-27T07:42:56.265Z,100.00
2023-03-27T07:45:24.032Z,100.00
2023-03-27T07:47:50.615Z,100.00
2023-03-27T07:50:20.301Z,100.00
2023-03-27T07:52:47.078Z,100.00
2023-03-27T07:55:14.738Z,100.00
2023-03-27T07:57:57.197Z,100.00
2023-03-27T08:00:27.785Z,100.00
2023-03-27T08:02:54.596Z,100.00
2023-03-27T08:05:21.284Z,100.00
2023-03-27T08:07:48.459Z,100.00
2023-03-27T08:10:16.030Z,100.00
2023-03-27T08:12:42.744Z,100.00
2023-03-27T08:15:09.492Z,100.00
2023-03-27T08:17:36.248Z,100.00
2023-03-27T08:20:06.855Z,100.00
2023-03-27T08:22:33.357Z,100.00
2023-03-27T08:24:59.809Z,100.00
2023-03-27T08:27:26.269Z,100.00
2023-03-27T08:29:53.106Z,100.00
2023-03-27T08:32:19.571Z,100.00
2023-03-27T08:34:46.175Z,100.00
2023-03-27T08:37:13.234Z,100.00
2023-03-27T08:39:39.708Z,100.00
2023-03-27T08:42:08.231Z,100.00
2023-03-27T08:44:34.792Z,100.00
2023-03-27T08:47:11.676Z,100.00
2023-03-27T08:49:41.155Z,100.00
2023-03-27T08:52:22.589Z,100.00
2023-03-27T08:54:58.214Z,100.00
2023-03-27T08:57:28.191Z,100.00
2023-03-27T08:59:59.650Z,100.00
2023-03-27T09:02:38.711Z,100.00
2023-03-27T09:05:09.332Z,100.00
2023-03-27T09:08:08.158Z,93.86
2023-03-27T09:10:45.859Z,93.65
2023-03-27T09:13:16.869Z,95.43
2023-03-27T09:15:55.487Z,94.69
2023-03-27T09:18:27.397Z,94.91
2023-03-27T09:20:56.344Z,93.91
2023-03-27T09:23:40.474Z,94.44
2023-03-27T09:26:14.776Z,96.39
2023-03-27T09:28:50.728Z,94.02
2023-03-27T09:31:46.026Z,93.41
2023-03-27T09:34:18.775Z,90.73
2023-03-27T09:36:45.305Z,87.85
2023-03-27T09:39:15.340Z,87.03
2023-03-27T09:41:44.465Z,83.85
2023-03-27T09:44:25.229Z,85.08
2023-03-27T09:46:58.080Z,82.25
2023-03-27T09:49:25.348Z,83.93
2023-03-27T09:52:00.064Z,81.54
2023-03-27T09:54:28.937Z,82.67
2023-03-27T09:57:03.354Z,84.83
2023-03-27T09:59:33.752Z,83.36
2023-03-27T10:02:09.407Z,82.58
2023-03-27T10:04:36.616Z,81.34
2023-03-27T10:07:06.911Z,81.83
2023-03-27T10:09:35.022Z,81.00
2023-03-27T10:12:07.900Z,79.27
2023-03-27T10:14:38.024Z,81.42
2023-03-27T10:17:05.200Z,80.77
2023-03-27T10:19:37.055Z,79.16
2023-03-27T10:22:14.413Z,78.60
2023-03-27T10:24:44.456Z,79.88
2023-03-27T10:27:18.851Z,80.07
2023-03-27T10:29:45.336Z,76.46
2023-03-27T10:32:11.869Z,77.98
2023-03-27T10:34:55.278Z,78.30
2023-03-27T10:37:26.547Z,77.31
2023-03-27T10:39:55.127Z,77.51
2023-03-27T10:42:22.810Z,78.35
2023-03-27T10:44:49.371Z,75.77
2023-03-27T10:47:18.505Z,72.40
2023-03-27T10:49:48.347Z,73.95
2023-03-27T10:52:27.987Z,72.77
2023-03-27T10:55:16.467Z,74.74
2023-03-27T10:57:42.929Z,76.34
2023-03-27T11:00:32.519Z,80.02
2023-03-27T11:03:31.061Z,76.27
2023-03-27T11:05:57.555Z,76.80
2023-03-27T11:08:31.281Z,81.25
2023-03-27T11:11:01.602Z,92.42
2023-03-27T11:13:32.263Z,100.00
2023-03-27T11:16:04.429Z,100.00
2023-03-27T11:18:34.648Z,100.00
2023-03-27T11:21:14.142Z,100.00
2023-03-27T11:23:48.373Z,100.00
2023-03-27T11:26:18.045Z,100.00
2023-03-27T11:29:04.176Z,100.00
2023-03-27T11:31:49.361Z,100.00
2023-03-27T11:34:36.324Z,100.00
2023-03-27T11:37:11.176Z,100.00
2023-03-27T11:39:49.886Z,100.00
2023-03-27T11:42:22.985Z,100.00
2023-03-27T11:44:49.545Z,97.59
2023-03-27T11:47:44.155Z,98.15
2023-03-27T11:50:24.422Z,100.00
2023-03-27T11:53:03.815Z,95.93
2023-03-27T11:55:44.284Z,94.42
2023-03-27T11:58:20.642Z,100.00
2023-03-27T12:00:57.032Z,100.00
2023-03-27T12:03:41.555Z,100.00
2023-03-27T12:06:31.185Z,100.00
2023-03-27T12:09:33.253Z,100.00
2023-03-27T12:12:34.389Z,100.00
2023-03-27T12:15:28.728Z,100.00
2023-03-27T12:18:35.260Z,100.00
2023-03-27T12:21:14.704Z,100.00
2023-03-27T12:23:51.550Z,100.00
2023-03-27T12:26:52.042Z,100.00
2023-03-27T12:29:43.750Z,100.00
2023-03-27T12:32:24.029Z,100.00
2023-03-27T12:34:50.873Z,100.00
2023-03-27T12:37:19.176Z,100.00
2023-03-27T12:39:50.792Z,100.00
2023-03-27T12:42:44.033Z,100.00
2023-03-27T12:45:17.831Z,100.00
2023-03-27T12:48:16.275Z,100.00
2023-03-27T12:50:52.116Z,100.00
2023-03-27T12:53:27.505Z,100.00
2023-03-27T12:56:20.934Z,100.00
2023-03-27T12:58:48.161Z,100.00
2023-03-27T13:01:52.061Z,100.00
2023-03-27T13:04:25.013Z,100.00
2023-03-27T13:07:06.129Z,100.00
2023-03-27T13:09:53.010Z,100.00
2023-03-27T13:12:42.463Z,100.00
2023-03-27T13:15:23.607Z,100.00
2023-03-27T13:18:10.204Z,100.00
2023-03-27T13:20:48.465Z,100.00
2023-03-27T13:23:40.040Z,100.00
2023-03-27T13:26:32.370Z,100.00
2023-03-27T13:28:58.882Z,100.00
2023-03-27T13:31:55.737Z,100.00
2023-03-27T13:34:40.749Z,100.00
2023-03-27T13:37:07.410Z,100.00
2023-03-27T13:39:55.628Z,100.00
2023-03-27T13:42:31.813Z,100.00
2023-03-27T13:44:59.272Z,100.00
2023-03-27T13:47:28.409Z,100.00
2023-03-27T13:50:06.923Z,100.00
2023-03-27T13:52:51.538Z,100.00
2023-03-27T13:55:34.654Z,100.00
2023-03-27T13:58:07.198Z,100.00
2023-03-27T14:00:47.382Z,100.00
2023-03-27T14:03:32.796Z,100.00
2023-03-27T14:06:23.618Z,100.00
2023-03-27T14:09:08.489Z,100.00
2023-03-27T14:11:53.658Z,100.00
2023-03-27T14:14:26.416Z,100.00
2023-03-27T14:17:08.156Z,100.00
2023-03-27T14:20:13.162Z,100.00
2023-03-27T14:22:48.341Z,98.04
2023-03-27T14:25:19.732Z,97.11
2023-03-27T14:27:49.734Z,93.94
2023-03-27T14:30:21.603Z,89.58
2023-03-27T14:32:51.493Z,91.09
2023-03-27T14:35:38.510Z,89.55
2023-03-27T14:38:24.789Z,83.48
2023-03-27T14:40:55.291Z,82.32
2023-03-27T14:43:22.066Z,87.39
2023-03-27T14:45:49.994Z,82.32
2023-03-27T14:48:37.313Z,82.51
2023-03-27T14:51:07.373Z,81.05
2023-03-27T14:53:44.356Z,84.70
2023-03-27T14:56:45.720Z,83.47
2023-03-27T14:59:14.020Z,79.96
2023-03-27T15:01:41.224Z,77.27
2023-03-27T15:04:07.792Z,78.43
2023-03-27T15:06:36.676Z,79.67
2023-03-27T15:09:06.653Z,78.98
2023-03-27T15:11:38.231Z,79.44
2023-03-27T15:14:20.896Z,80.08
2023-03-27T15:16:52.978Z,81.25
2023-03-27T15:19:20.961Z,80.52
2023-03-27T15:21:54.545Z,83.37
2023-03-27T15:24:21.411Z,81.27
2023-03-27T15:26:48.986Z,83.53
2023-03-27T15:29:42.552Z,86.31
2023-03-27T15:32:11.986Z,89.65
2023-03-27T15:34:45.949Z,100.00
2023-03-27T15:37:20.154Z,100.00
2023-03-27T15:40:41.788Z,100.00
2023-03-27T15:43:08.947Z,100.00
2023-03-27T15:45:38.111Z,100.00
2023-03-27T15:48:06.654Z,100.00
2023-03-27T15:50:33.416Z,100.00
2023-03-27T15:53:01.509Z,100.00
2023-03-27T15:55:55.883Z,100.00
2023-03-27T15:58:27.245Z,100.00
2023-03-27T16:00:58.184Z,100.00
2023-03-27T16:03:25.528Z,99.38
2023-03-27T16:05:56.285Z,100.00
2023-03-27T16:08:36.492Z,97.65
2023-03-27T16:11:03.553Z,94.25
2023-03-27T16:13:35.001Z,92.95
2023-03-27T16:16:11.618Z,91.30
2023-03-27T16:18:38.115Z,90.31
2023-03-27T16:21:09.235Z,92.38
2023-03-27T16:23:35.740Z,92.80
2023-03-27T16:26:02.264Z,90.55
2023-03-27T16:28:29.782Z,88.17
2023-03-27T16:30:57.795Z,90.00
2023-03-27T16:33:24.741Z,92.03
2023-03-27T16:35:51.378Z,92.99
2023-03-27T16:38:20.087Z,91.67
2023-03-27T16:40:46.616Z,93.63
2023-03-27T16:43:13.433Z,93.26
2023-03-27T16:45:39.966Z,94.38
2023-03-27T16:48:07.896Z,95.28
2023-03-27T16:50:34.498Z,95.15
2023-03-27T16:53:01.237Z,95.76
2023-03-27T16:55:27.696Z,96.51
2023-03-27T16:57:55.051Z,96.56
2023-03-27T17:00:24.266Z,98.95
2023-03-27T17:02:50.830Z,99.94
2023-03-27T17:05:17.579Z,100.00
2023-03-27T17:07:46.468Z,100.00
2023-03-27T17:10:13.222Z,98.56
2023-03-27T17:12:39.694Z,98.36
2023-03-27T17:15:06.805Z,98.71
2023-03-27T17:17:33.328Z,98.06
2023-03-27T17:20:00.583Z,98.81
2023-03-27T17:22:29.725Z,99.45
2023-03-27T17:24:57.658Z,100.00
2023-03-27T17:27:25.860Z,99.89
2023-03-27T17:29:52.390Z,100.00
2023-03-27T17:32:18.878Z,100.00
2023-03-27T17:34:45.694Z,100.00
2023-03-27T17:37:12.517Z,100.00
2023-03-27T17:39:39.425Z,100.00
2023-03-27T17:42:06.604Z,100.00
2023-03-27T17:44:33.101Z,100.00
2023-03-27T17:47:00.466Z,100.00
2023-03-27T17:49:29.542Z,100.00
2023-03-27T17:51:56.142Z,100.00
2023-03-27T17:54:22.656Z,100.00
2023-03-27T17:56:49.210Z,100.00
2023-03-27T17:59:15.761Z,99.62
2023-03-27T18:01:44.481Z,98.36
2023-03-27T18:04:12.016Z,96.20
2023-03-27T18:06:38.505Z,93.78
2023-03-27T18:09:04.983Z,90.97
2023-03-27T18:11:32.390Z,87.97
2023-03-27T18:13:58.928Z,88.96
2023-03-27T18:16:25.515Z,88.11
2023-03-27T18:18:54.732Z,88.78
2023-03-27T18:21:21.853Z,89.61
2023-03-27T18:23:48.302Z,89.06
2023-03-27T18:26:15.130Z,88.04
2023-03-27T18:28:41.613Z,89.34
2023-03-27T18:31:09.700Z,90.94
2023-03-27T18:33:36.434Z,90.96
2023-03-27T18:36:03.200Z,90.04
2023-03-27T18:38:29.836Z,90.96
2023-03-27T18:40:56.883Z,90.59
2023-03-27T18:43:23.741Z,93.11
2023-03-27T18:46:00.936Z,92.35
2023-03-27T18:48:28.000Z,92.25
2023-03-27T18:50:55.007Z,92.95
2023-03-27T18:53:21.713Z,93.65
2023-03-27T18:55:49.521Z,93.07
2023-03-27T18:58:16.207Z,93.54
2023-03-27T19:00:42.678Z,94.91
2023-03-27T19:03:15.713Z,94.83
2023-03-27T19:05:42.170Z,95.46
2023-03-27T19:08:08.671Z,95.68
2023-03-27T19:10:35.832Z,96.18
2023-03-27T19:13:02.879Z,95.96
2023-03-27T19:15:30.013Z,96.03
2023-03-27T19:17:56.546Z,96.14
2023-03-27T19:20:23.079Z,97.60
2023-03-27T19:22:49.629Z,99.80
2023-03-27T19:25:16.410Z,99.43
2023-03-27T19:27:43.105Z,99.71
2023-03-27T19:30:10.320Z,99.08
2023-03-27T19:32:37.455Z,98.65
2023-03-27T19:35:05.035Z,97.94
2023-03-27T19:37:31.799Z,99.44
2023-03-27T19:40:01.355Z,100.00
2023-03-27T19:42:28.554Z,99.80
2023-03-27T19:44:55.477Z,99.68
2023-03-27T19:47:21.992Z,99.75
2023-03-27T19:49:48.872Z,100.00
2023-03-27T19:52:19.784Z,100.00
2023-03-27T19:54:46.562Z,100.00
2023-03-27T19:57:13.209Z,100.00
2023-03-27T19:59:39.762Z,100.00
2023-03-27T20:02:06.647Z,100.00
2023-03-27T20:04:33.426Z,100.00
2023-03-27T20:07:01.693Z,100.00
2023-03-27T20:09:28.334Z,100.00
2023-03-27T20:11:55.041Z,100.00
2023-03-27T20:14:21.596Z,100.00
2023-03-27T20:16:48.234Z,100.00
2023-03-27T20:19:16.620Z,100.00
2023-03-27T20:21:43.482Z,100.00
2023-03-27T20:24:11.453Z,100.00
2023-03-27T20:26:41.799Z,100.00
2023-03-27T20:29:09.975Z,100.00
2023-03-27T20:31:36.500Z,100.00
2023-03-27T20:34:03.140Z,100.00
2023-03-27T20:36:29.776Z,100.00
2023-03-27T20:38:56.480Z,100.00
2023-03-27T20:41:22.978Z,100.00
2023-03-27T20:43:50.877Z,100.00
2023-03-27T20:46:17.980Z,100.00
2023-03-27T20:48:53.861Z,100.00
2023-03-27T20:51:23.980Z,100.00
2023-03-27T20:53:55.460Z,100.00
2023-03-27T20:56:22.263Z,100.00
2023-03-27T20:58:48.765Z,100.00
2023-03-27T21:01:19.208Z,100.00
2023-03-27T21:03:49.696Z,100.00
2023-03-27T21:06:18.524Z,100.00
2023-03-27T21:08:45.326Z,100.00
2023-03-27T21:11:11.834Z,100.00
2023-03-27T21:13:38.331Z,100.00
2023-03-27T21:16:05.282Z,100.00
2023-03-27T21:18:32.086Z,100.00
2023-03-27T21:20:58.803Z,100.00
2023-03-27T21:23:25.279Z,100.00
2023-03-27T21:25:51.816Z,100.00
2023-03-27T21:28:18.341Z,100.00
2023-03-27T21:30:46.304Z,100.00
2023-03-27T21:33:16.037Z,100.00
2023-03-27T21:35:45.524Z,100.00
2023-03-27T21:38:12.807Z,100.00
2023-03-27T21:40:39.465Z,100.00
2023-03-27T21:43:06.819Z,100.00
2023-03-27T21:45:33.300Z,100.00
2023-03-27T21:47:59.772Z,100.00
2023-03-27T21:50:26.296Z,100.00
2023-03-27T21:52:52.777Z,100.00
2023-03-27T21:55:19.262Z,100.00
2023-03-27T21:57:45.962Z,100.00
2023-03-27T22:00:14.290Z,100.00
2023-03-27T22:02:41.355Z,100.00
2023-03-27T22:05:08.056Z,100.00
2023-03-27T22:07:34.594Z,100.00
2023-03-27T22:10:01.575Z,100.00
2023-03-27T22:12:28.051Z,100.00
2023-03-27T22:14:54.514Z,100.00
2023-03-27T22:17:21.119Z,100.00
2023-03-27T22:19:47.594Z,100.00
2023-03-27T22:22:14.293Z,100.00
2023-03-27T22:24:40.808Z,100.00
2023-03-27T22:27:07.316Z,100.00
2023-03-27T22:29:33.929Z,100.00
2023-03-27T22:32:00.412Z,100.00
2023-03-27T22:34:27.159Z,100.00
2023-03-27T22:36:53.645Z,100.00
2023-03-27T22:39:20.225Z,100.00
2023-03-27T22:41:46.728Z,100.00
2023-03-27T22:44:13.210Z,100.00
2023-03-27T22:46:39.732Z,100.00
2023-03-27T22:49:06.400Z,100.00
2023-03-27T22:51:32.874Z,100.00
2023-03-27T22:54:01.447Z,100.00
2023-03-27T22:56:28.225Z,100.00
2023-03-27T22:58:54.689Z,100.00
2023-03-27T23:01:21.189Z,100.00
2023-03-27T23:03:47.798Z,100.00
2023-03-27T23:06:18.503Z,100.00
2023-03-27T23:08:45.029Z,100.00
2023-03-27T23:11:12.533Z,100.00
2023-03-27T23:13:39.085Z,100.00
2023-03-27T23:16:06.103Z,100.00
2023-03-27T23:18:32.653Z,100.00
2023-03-27T23:21:03.472Z,100.00
2023-03-27T23:23:30.378Z,100.00
2023-03-27T23:25:57.844Z,100.00
2023-03-27T23:28:24.922Z,100.00
2023-03-27T23:30:55.590Z,100.00
2023-03-27T23:33:24.791Z,100.00
2023-03-27T23:35:52.392Z,100.00
2023-03-27T23:38:19.136Z,100.00
2023-03-27T23:40:45.877Z,100.00
2023-03-27T23:43:12.366Z,100.00
2023-03-27T23:45:38.831Z,100.00
2023-03-27T23:48:05.983Z,100.00
2023-03-27T23:50:32.505Z,100.00
2023-03-27T23:52:59.030Z,100.00
2023-03-27T23:55:25.565Z,100.00
2023-03-27T23:57:52.021Z,100.00
